sensor_id;sensor_type;location;lat;lon;timestamp;pressure;altitude;pressure_sealevel;temperature;humidity
77469;BME280;68840;50.272;12.818;2023-05-23T00:00:07;95613;;;18.2;58.3
77469;BME280;68840;50.272;12.818;2023-05-23T00:02:07;95614;;;18.2;57.2
77469;BME280;68840;50.272;12.818;2023-05-23T00:04:06;95616;;;18.2;57.1
77469;BME280;68840;50.272;12.818;2023-05-23T00:06:06;95622;;;18.2;58.0
77469;BME280;68840;50.272;12.818;2023-05-23T00:08:05;95627;;;18.2;57.5
77469;BME280;68840;50.272;12.818;2023-05-23T00:10:06;95627;;;18.2;57.1
77469;BME280;68840;50.272;12.818;2023-05-23T00:12:06;95633;;;18.2;57.1
77469;BME280;68840;50.272;12.818;2023-05-23T00:14:07;95636;;;18.2;56.7
77469;BME280;68840;50.272;12.818;2023-05-23T00:16:08;95640;;;18.2;57.3
77469;BME280;68840;50.272;12.818;2023-05-23T00:18:08;95640;;;18.2;57.3
77469;BME280;68840;50.272;12.818;2023-05-23T00:20:08;95637;;;18.2;57.4
77469;BME280;68840;50.272;12.818;2023-05-23T00:22:05;95633;;;18.3;57.6
77469;BME280;68840;50.272;12.818;2023-05-23T00:24:06;95629;;;18.3;57.3
77469;BME280;68840;50.272;12.818;2023-05-23T00:26:05;95625;;;18.3;56.9
77469;BME280;68840;50.272;12.818;2023-05-23T00:28:06;95623;;;18.3;57.1
77469;BME280;68840;50.272;12.818;2023-05-23T00:30:06;95622;;;18.3;57.3
77469;BME280;68840;50.272;12.818;2023-05-23T00:32:06;95620;;;18.2;57.5
77469;BME280;68840;50.272;12.818;2023-05-23T00:34:05;95615;;;18.2;57.4
77469;BME280;68840;50.272;12.818;2023-05-23T00:36:06;95612;;;18.2;57.1
77469;BME280;68840;50.272;12.818;2023-05-23T00:38:06;95608;;;18.2;56.8
77469;BME280;68840;50.272;12.818;2023-05-23T00:40:07;95605;;;18.1;56.7
77469;BME280;68840;50.272;12.818;2023-05-23T00:42:06;95602;;;18.1;56.4
77469;BME280;68840;50.272;12.818;2023-05-23T00:44:05;95602;;;18.1;56.1
77469;BME280;68840;50.272;12.818;2023-05-23T00:46:06;95602;;;18.1;56.1
77469;BME280;68840;50.272;12.818;2023-05-23T00:48:06;95602;;;18.1;56.2
77469;BME280;68840;50.272;12.818;2023-05-23T00:50:07;95603;;;18.1;56.1
77469;BME280;68840;50.272;12.818;2023-05-23T00:52:06;95603;;;18.0;56.1
77469;BME280;68840;50.272;12.818;2023-05-23T00:54:06;95603;;;18.0;56.1
77469;BME280;68840;50.272;12.818;2023-05-23T00:56:05;95605;;;18.0;56.2
77469;BME280;68840;50.272;12.818;2023-05-23T00:58:05;95606;;;18.0;56.5
77469;BME280;68840;50.272;12.818;2023-05-23T01:00:09;95605;;;18.0;56.4
77469;BME280;68840;50.272;12.818;2023-05-23T01:02:05;95603;;;18.0;56.6
77469;BME280;68840;50.272;12.818;2023-05-23T01:04:06;95600;;;18.0;56.7
77469;BME280;68840;50.272;12.818;2023-05-23T01:06:06;95597;;;18.0;56.6
77469;BME280;68840;50.272;12.818;2023-05-23T01:08:06;95595;;;18.0;56.8
77469;BME280;68840;50.272;12.818;2023-05-23T01:10:06;95595;;;17.9;57.1
77469;BME280;68840;50.272;12.818;2023-05-23T01:12:16;95596;;;17.9;57.0
77469;BME280;68840;50.272;12.818;2023-05-23T01:14:10;95596;;;17.9;57.1
77469;BME280;68840;50.272;12.818;2023-05-23T01:16:08;95598;;;17.9;57.3
77469;BME280;68840;50.272;12.818;2023-05-23T01:18:09;95601;;;17.8;57.2
77469;BME280;68840;50.272;12.818;2023-05-23T01:20:10;95602;;;17.8;57.5
77469;BME280;68840;50.272;12.818;2023-05-23T01:22:11;95605;;;17.7;57.4
77469;BME280;68840;50.272;12.818;2023-05-23T01:24:24;95605;;;17.7;57.6
77469;BME280;68840;50.272;12.818;2023-05-23T01:26:17;95608;;;17.6;57.4
77469;BME280;68840;50.272;12.818;2023-05-23T01:28:07;95611;;;17.6;58.1
77469;BME280;68840;50.272;12.818;2023-05-23T01:30:08;95608;;;17.5;58.3
77469;BME280;68840;50.272;12.818;2023-05-23T01:32:10;95605;;;17.5;58.8
77469;BME280;68840;50.272;12.818;2023-05-23T01:34:06;95605;;;17.4;57.8
77469;BME280;68840;50.272;12.818;2023-05-23T01:36:06;95605;;;17.3;58.8
77469;BME280;68840;50.272;12.818;2023-05-23T01:38:05;95605;;;17.2;59.4
77469;BME280;68840;50.272;12.818;2023-05-23T01:40:07;95607;;;17.2;59.6
77469;BME280;68840;50.272;12.818;2023-05-23T01:42:06;95605;;;17.1;59.7
77469;BME280;68840;50.272;12.818;2023-05-23T01:44:06;95600;;;17.1;60.0
77469;BME280;68840;50.272;12.818;2023-05-23T01:46:07;95599;;;17.0;60.4
77469;BME280;68840;50.272;12.818;2023-05-23T01:48:07;95599;;;17.0;60.9
77469;BME280;68840;50.272;12.818;2023-05-23T01:50:07;95598;;;16.9;61.2
77469;BME280;68840;50.272;12.818;2023-05-23T01:52:08;95597;;;16.9;61.2
77469;BME280;68840;50.272;12.818;2023-05-23T01:54:06;95598;;;16.9;61.4
77469;BME280;68840;50.272;12.818;2023-05-23T01:56:06;95601;;;16.8;61.4
77469;BME280;68840;50.272;12.818;2023-05-23T01:58:06;95603;;;16.8;61.6
77469;BME280;68840;50.272;12.818;2023-05-23T02:00:06;95604;;;16.8;61.8
77469;BME280;68840;50.272;12.818;2023-05-23T02:02:06;95603;;;16.8;61.8
77469;BME280;68840;50.272;12.818;2023-05-23T02:04:05;95601;;;16.8;62.0
77469;BME280;68840;50.272;12.818;2023-05-23T02:06:05;95597;;;16.8;62.1
77469;BME280;68840;50.272;12.818;2023-05-23T02:08:05;95596;;;16.7;62.1
77469;BME280;68840;50.272;12.818;2023-05-23T02:10:07;95595;;;16.7;62.2
77469;BME280;68840;50.272;12.818;2023-05-23T02:12:06;95594;;;16.7;62.1
77469;BME280;68840;50.272;12.818;2023-05-23T02:14:06;95590;;;16.7;62.0
77469;BME280;68840;50.272;12.818;2023-05-23T02:16:06;95585;;;16.7;61.5
77469;BME280;68840;50.272;12.818;2023-05-23T02:18:05;95585;;;16.7;62.2
77469;BME280;68840;50.272;12.818;2023-05-23T02:20:07;95582;;;16.6;62.2
77469;BME280;68840;50.272;12.818;2023-05-23T02:22:05;95581;;;16.6;62.2
77469;BME280;68840;50.272;12.818;2023-05-23T02:24:05;95581;;;16.5;62.4
77469;BME280;68840;50.272;12.818;2023-05-23T02:26:05;95581;;;16.5;62.6
77469;BME280;68840;50.272;12.818;2023-05-23T02:28:05;95581;;;16.5;62.5
77469;BME280;68840;50.272;12.818;2023-05-23T02:30:06;95579;;;16.5;62.9
77469;BME280;68840;50.272;12.818;2023-05-23T02:32:06;95575;;;16.5;63.0
77469;BME280;68840;50.272;12.818;2023-05-23T02:34:05;95574;;;16.4;63.1
77469;BME280;68840;50.272;12.818;2023-05-23T02:36:06;95573;;;16.4;63.4
77469;BME280;68840;50.272;12.818;2023-05-23T02:38:05;95572;;;16.4;63.5
77469;BME280;68840;50.272;12.818;2023-05-23T02:40:07;95573;;;16.4;63.6
77469;BME280;68840;50.272;12.818;2023-05-23T02:42:06;95575;;;16.4;63.5
77469;BME280;68840;50.272;12.818;2023-05-23T02:44:05;95579;;;16.4;63.5
77469;BME280;68840;50.272;12.818;2023-05-23T02:46:05;95580;;;16.5;63.5
77469;BME280;68840;50.272;12.818;2023-05-23T02:48:05;95581;;;16.5;63.3
77469;BME280;68840;50.272;12.818;2023-05-23T02:50:06;95581;;;16.5;63.4
77469;BME280;68840;50.272;12.818;2023-05-23T02:52:05;95579;;;16.5;63.4
77469;BME280;68840;50.272;12.818;2023-05-23T02:54:05;95575;;;16.5;63.4
77469;BME280;68840;50.272;12.818;2023-05-23T02:56:07;95567;;;16.6;63.8
77469;BME280;68840;50.272;12.818;2023-05-23T02:58:05;95557;;;16.6;64.3
77469;BME280;68840;50.272;12.818;2023-05-23T03:00:06;95555;;;16.6;64.6
77469;BME280;68840;50.272;12.818;2023-05-23T03:02:05;95564;;;16.6;64.9
77469;BME280;68840;50.272;12.818;2023-05-23T03:04:05;95577;;;16.6;65.5
77469;BME280;68840;50.272;12.818;2023-05-23T03:06:06;95582;;;16.6;64.9
77469;BME280;68840;50.272;12.818;2023-05-23T03:08:05;95578;;;16.6;64.9
77469;BME280;68840;50.272;12.818;2023-05-23T03:10:06;95575;;;16.6;64.8
77469;BME280;68840;50.272;12.818;2023-05-23T03:12:06;95578;;;16.6;64.6
77469;BME280;68840;50.272;12.818;2023-05-23T03:14:05;95580;;;16.6;64.4
77469;BME280;68840;50.272;12.818;2023-05-23T03:16:06;95581;;;16.6;64.5
77469;BME280;68840;50.272;12.818;2023-05-23T03:18:06;95583;;;16.6;64.9
77469;BME280;68840;50.272;12.818;2023-05-23T03:20:08;95580;;;16.6;65.1
77469;BME280;68840;50.272;12.818;2023-05-23T03:22:05;95577;;;16.6;64.7
77469;BME280;68840;50.272;12.818;2023-05-23T03:24:05;95576;;;16.6;64.9
77469;BME280;68840;50.272;12.818;2023-05-23T03:26:05;95574;;;16.7;64.8
77469;BME280;68840;50.272;12.818;2023-05-23T03:28:05;95573;;;16.7;64.9
77469;BME280;68840;50.272;12.818;2023-05-23T03:30:06;95570;;;16.6;64.8
77469;BME280;68840;50.272;12.818;2023-05-23T03:32:05;95571;;;16.6;64.1
77469;BME280;68840;50.272;12.818;2023-05-23T03:34:05;95572;;;16.6;64.7
77469;BME280;68840;50.272;12.818;2023-05-23T03:36:06;95571;;;16.6;64.8
77469;BME280;68840;50.272;12.818;2023-05-23T03:38:06;95571;;;16.6;65.3
77469;BME280;68840;50.272;12.818;2023-05-23T03:40:07;95571;;;16.6;65.3
77469;BME280;68840;50.272;12.818;2023-05-23T03:42:06;95575;;;16.6;65.8
77469;BME280;68840;50.272;12.818;2023-05-23T03:44:05;95577;;;16.6;65.2
77469;BME280;68840;50.272;12.818;2023-05-23T03:46:05;95579;;;16.6;66.1
77469;BME280;68840;50.272;12.818;2023-05-23T03:48:05;95579;;;16.6;65.5
77469;BME280;68840;50.272;12.818;2023-05-23T03:50:06;95580;;;16.6;65.8
77469;BME280;68840;50.272;12.818;2023-05-23T03:52:06;95584;;;16.6;64.9
77469;BME280;68840;50.272;12.818;2023-05-23T03:54:05;95587;;;16.6;64.1
77469;BME280;68840;50.272;12.818;2023-05-23T03:56:05;95589;;;16.6;63.8
77469;BME280;68840;50.272;12.818;2023-05-23T03:58:06;95588;;;16.6;63.2
77469;BME280;68840;50.272;12.818;2023-05-23T04:00:11;95587;;;16.6;63.8
77469;BME280;68840;50.272;12.818;2023-05-23T04:02:05;95585;;;16.6;63.9
77469;BME280;68840;50.272;12.818;2023-05-23T04:04:05;95584;;;16.6;64.0
77469;BME280;68840;50.272;12.818;2023-05-23T04:06:06;95581;;;16.6;64.1
77469;BME280;68840;50.272;12.818;2023-05-23T04:08:05;95583;;;16.6;64.0
77469;BME280;68840;50.272;12.818;2023-05-23T04:10:06;95587;;;16.6;64.1
77469;BME280;68840;50.272;12.818;2023-05-23T04:12:08;95591;;;16.6;64.1
77469;BME280;68840;50.272;12.818;2023-05-23T04:14:06;95593;;;16.6;63.8
77469;BME280;68840;50.272;12.818;2023-05-23T04:16:06;95595;;;16.6;63.8
77469;BME280;68840;50.272;12.818;2023-05-23T04:18:07;95598;;;16.6;63.9
77469;BME280;68840;50.272;12.818;2023-05-23T04:20:09;95598;;;16.6;64.0
77469;BME280;68840;50.272;12.818;2023-05-23T04:22:05;95600;;;16.5;64.7
77469;BME280;68840;50.272;12.818;2023-05-23T04:24:05;95602;;;16.5;64.7
77469;BME280;68840;50.272;12.818;2023-05-23T04:26:05;95602;;;16.5;64.8
77469;BME280;68840;50.272;12.818;2023-05-23T04:28:05;95604;;;16.5;65.0
77469;BME280;68840;50.272;12.818;2023-05-23T04:30:08;95603;;;16.5;65.4
77469;BME280;68840;50.272;12.818;2023-05-23T04:32:05;95602;;;16.4;65.3
77469;BME280;68840;50.272;12.818;2023-05-23T04:34:07;95601;;;16.4;65.5
77469;BME280;68840;50.272;12.818;2023-05-23T04:36:08;95602;;;16.4;65.5
77469;BME280;68840;50.272;12.818;2023-05-23T04:38:06;95602;;;16.4;65.8
77469;BME280;68840;50.272;12.818;2023-05-23T04:40:06;95601;;;16.4;66.3
77469;BME280;68840;50.272;12.818;2023-05-23T04:42:06;95601;;;16.4;66.4
77469;BME280;68840;50.272;12.818;2023-05-23T04:44:06;95600;;;16.4;66.3
77469;BME280;68840;50.272;12.818;2023-05-23T04:46:05;95601;;;16.4;66.3
77469;BME280;68840;50.272;12.818;2023-05-23T04:48:06;95602;;;16.4;66.5
77469;BME280;68840;50.272;12.818;2023-05-23T04:50:06;95604;;;16.4;66.8
77469;BME280;68840;50.272;12.818;2023-05-23T04:52:05;95603;;;16.4;66.3
77469;BME280;68840;50.272;12.818;2023-05-23T04:54:05;95604;;;16.4;66.5
77469;BME280;68840;50.272;12.818;2023-05-23T04:56:07;95605;;;16.4;66.9
77469;BME280;68840;50.272;12.818;2023-05-23T04:58:06;95605;;;16.4;66.9
77469;BME280;68840;50.272;12.818;2023-05-23T05:00:09;95607;;;16.4;67.2
77469;BME280;68840;50.272;12.818;2023-05-23T05:02:05;95607;;;16.4;67.1
77469;BME280;68840;50.272;12.818;2023-05-23T05:04:05;95607;;;16.4;67.2
77469;BME280;68840;50.272;12.818;2023-05-23T05:06:06;95605;;;16.4;67.2
77469;BME280;68840;50.272;12.818;2023-05-23T05:08:06;95602;;;16.4;67.5
77469;BME280;68840;50.272;12.818;2023-05-23T05:10:06;95603;;;16.4;67.4
77469;BME280;68840;50.272;12.818;2023-05-23T05:12:05;95609;;;16.4;67.7
77469;BME280;68840;50.272;12.818;2023-05-23T05:14:05;95614;;;16.4;67.5
77469;BME280;68840;50.272;12.818;2023-05-23T05:16:07;95615;;;16.4;67.7
77469;BME280;68840;50.272;12.818;2023-05-23T05:18:05;95616;;;16.4;67.8
77469;BME280;68840;50.272;12.818;2023-05-23T05:20:07;95619;;;16.4;68.1
77469;BME280;68840;50.272;12.818;2023-05-23T05:22:06;95623;;;16.4;68.3
77469;BME280;68840;50.272;12.818;2023-05-23T05:24:08;95623;;;16.4;68.2
77469;BME280;68840;50.272;12.818;2023-05-23T05:26:05;95624;;;16.4;68.4
77469;BME280;68840;50.272;12.818;2023-05-23T05:28:05;95622;;;16.4;68.6
77469;BME280;68840;50.272;12.818;2023-05-23T05:30:07;95622;;;16.4;68.8
77469;BME280;68840;50.272;12.818;2023-05-23T05:32:07;95623;;;16.4;69.0
77469;BME280;68840;50.272;12.818;2023-05-23T05:34:05;95627;;;16.4;69.1
77469;BME280;68840;50.272;12.818;2023-05-23T05:36:06;95630;;;16.5;69.6
77469;BME280;68840;50.272;12.818;2023-05-23T05:38:07;95629;;;16.5;69.3
77469;BME280;68840;50.272;12.818;2023-05-23T05:40:07;95632;;;16.6;69.4
77469;BME280;68840;50.272;12.818;2023-05-23T05:42:05;95632;;;16.6;69.6
77469;BME280;68840;50.272;12.818;2023-05-23T05:44:07;95635;;;16.7;69.6
77469;BME280;68840;50.272;12.818;2023-05-23T05:46:05;95634;;;16.8;69.4
77469;BME280;68840;50.272;12.818;2023-05-23T05:48:06;95632;;;16.9;69.7
77469;BME280;68840;50.272;12.818;2023-05-23T05:50:07;95630;;;17.0;69.7
77469;BME280;68840;50.272;12.818;2023-05-23T05:52:06;95628;;;17.1;69.4
77469;BME280;68840;50.272;12.818;2023-05-23T05:54:06;95627;;;17.5;68.2
77469;BME280;68840;50.272;12.818;2023-05-23T05:56:07;95627;;;17.8;66.9
77469;BME280;68840;50.272;12.818;2023-05-23T05:58:05;95628;;;18.0;67.3
77469;BME280;68840;50.272;12.818;2023-05-23T06:00:13;95628;;;18.1;65.8
77469;BME280;68840;50.272;12.818;2023-05-23T06:02:07;95628;;;18.2;66.5
77469;BME280;68840;50.272;12.818;2023-05-23T06:04:06;95629;;;18.3;66.1
77469;BME280;68840;50.272;12.818;2023-05-23T06:06:07;95632;;;18.4;66.5
77469;BME280;68840;50.272;12.818;2023-05-23T06:10:06;95635;;;18.5;65.5
77469;BME280;68840;50.272;12.818;2023-05-23T06:12:06;95634;;;18.6;65.6
77469;BME280;68840;50.272;12.818;2023-05-23T06:14:06;95636;;;18.6;65.5
77469;BME280;68840;50.272;12.818;2023-05-23T06:16:06;95637;;;18.7;64.6
77469;BME280;68840;50.272;12.818;2023-05-23T06:18:05;95638;;;18.7;65.4
77469;BME280;68840;50.272;12.818;2023-05-23T06:20:07;95639;;;18.7;66.5
77469;BME280;68840;50.272;12.818;2023-05-23T06:22:05;95640;;;18.7;67.7
77469;BME280;68840;50.272;12.818;2023-05-23T06:24:05;95643;;;18.7;67.4
77469;BME280;68840;50.272;12.818;2023-05-23T06:26:09;95646;;;18.7;68.3
77469;BME280;68840;50.272;12.818;2023-05-23T06:28:06;95646;;;18.7;68.4
77469;BME280;68840;50.272;12.818;2023-05-23T06:30:06;95644;;;18.6;67.8
77469;BME280;68840;50.272;12.818;2023-05-23T06:32:05;95643;;;18.6;68.1
77469;BME280;68840;50.272;12.818;2023-05-23T06:34:06;95645;;;18.5;67.2
77469;BME280;68840;50.272;12.818;2023-05-23T06:36:06;95647;;;18.5;67.2
77469;BME280;68840;50.272;12.818;2023-05-23T06:38:05;95651;;;18.4;67.0
77469;BME280;68840;50.272;12.818;2023-05-23T06:40:06;95653;;;18.4;67.6
77469;BME280;68840;50.272;12.818;2023-05-23T06:42:06;95652;;;18.3;67.5
77469;BME280;68840;50.272;12.818;2023-05-23T06:44:05;95650;;;18.3;66.9
77469;BME280;68840;50.272;12.818;2023-05-23T06:46:05;95652;;;18.3;67.1
77469;BME280;68840;50.272;12.818;2023-05-23T06:48:05;95652;;;18.3;67.3
77469;BME280;68840;50.272;12.818;2023-05-23T06:50:06;95654;;;18.3;66.0
77469;BME280;68840;50.272;12.818;2023-05-23T06:52:05;95654;;;18.3;66.5
77469;BME280;68840;50.272;12.818;2023-05-23T06:54:06;95656;;;18.3;67.2
77469;BME280;68840;50.272;12.818;2023-05-23T06:56:05;95659;;;18.4;67.6
77469;BME280;68840;50.272;12.818;2023-05-23T06:58:05;95663;;;18.4;66.9
77469;BME280;68840;50.272;12.818;2023-05-23T07:00:06;95666;;;18.5;66.0
77469;BME280;68840;50.272;12.818;2023-05-23T07:02:05;95667;;;18.5;64.8
77469;BME280;68840;50.272;12.818;2023-05-23T07:04:05;95670;;;18.6;65.1
77469;BME280;68840;50.272;12.818;2023-05-23T07:06:05;95672;;;18.6;65.1
77469;BME280;68840;50.272;12.818;2023-05-23T07:08:06;95674;;;18.6;64.0
77469;BME280;68840;50.272;12.818;2023-05-23T07:10:06;95678;;;18.7;64.5
77469;BME280;68840;50.272;12.818;2023-05-23T07:12:05;95680;;;18.6;64.0
77469;BME280;68840;50.272;12.818;2023-05-23T07:14:06;95680;;;18.6;63.7
77469;BME280;68840;50.272;12.818;2023-05-23T07:16:05;95681;;;18.6;63.1
77469;BME280;68840;50.272;12.818;2023-05-23T07:18:06;95683;;;18.6;63.7
77469;BME280;68840;50.272;12.818;2023-05-23T07:20:07;95686;;;18.6;63.5
77469;BME280;68840;50.272;12.818;2023-05-23T07:22:05;95688;;;18.6;63.1
77469;BME280;68840;50.272;12.818;2023-05-23T07:24:06;95691;;;18.6;64.2
77469;BME280;68840;50.272;12.818;2023-05-23T07:26:08;95696;;;18.5;64.0
77469;BME280;68840;50.272;12.818;2023-05-23T07:28:05;95699;;;18.5;63.7
77469;BME280;68840;50.272;12.818;2023-05-23T07:30:08;95703;;;18.5;63.9
77469;BME280;68840;50.272;12.818;2023-05-23T07:32:05;95702;;;18.4;63.8
77469;BME280;68840;50.272;12.818;2023-05-23T07:34:05;95704;;;18.4;63.4
77469;BME280;68840;50.272;12.818;2023-05-23T07:36:06;95701;;;18.3;63.5
77469;BME280;68840;50.272;12.818;2023-05-23T07:38:05;95702;;;18.3;63.7
77469;BME280;68840;50.272;12.818;2023-05-23T07:46:05;95699;;;18.2;63.7
77469;BME280;68840;50.272;12.818;2023-05-23T07:48:05;95698;;;18.2;64.3
77469;BME280;68840;50.272;12.818;2023-05-23T07:50:06;95697;;;18.3;65.1
77469;BME280;68840;50.272;12.818;2023-05-23T07:52:05;95695;;;18.4;64.9
77469;BME280;68840;50.272;12.818;2023-05-23T07:54:05;95695;;;18.5;64.0
77469;BME280;68840;50.272;12.818;2023-05-23T07:56:06;95696;;;18.6;63.3
77469;BME280;68840;50.272;12.818;2023-05-23T07:58:06;95698;;;18.7;62.7
77469;BME280;68840;50.272;12.818;2023-05-23T08:00:06;95699;;;18.7;63.2
77469;BME280;68840;50.272;12.818;2023-05-23T08:02:05;95703;;;18.7;63.3
77469;BME280;68840;50.272;12.818;2023-05-23T08:04:06;95703;;;18.7;63.2
77469;BME280;68840;50.272;12.818;2023-05-23T08:06:06;95705;;;18.8;65.5
77469;BME280;68840;50.272;12.818;2023-05-23T08:08:05;95705;;;18.9;64.4
77469;BME280;68840;50.272;12.818;2023-05-23T08:10:06;95711;;;18.9;61.2
77469;BME280;68840;50.272;12.818;2023-05-23T08:12:06;95711;;;19.0;61.4
77469;BME280;68840;50.272;12.818;2023-05-23T08:14:05;95710;;;19.0;60.7
77469;BME280;68840;50.272;12.818;2023-05-23T08:16:05;95710;;;19.1;61.3
77469;BME280;68840;50.272;12.818;2023-05-23T08:18:05;95714;;;19.1;62.3
77469;BME280;68840;50.272;12.818;2023-05-23T08:38:06;95733;;;19.5;58.5
77469;BME280;68840;50.272;12.818;2023-05-23T08:40:07;95734;;;19.4;58.3
77469;BME280;68840;50.272;12.818;2023-05-23T08:42:06;95736;;;19.4;60.0
77469;BME280;68840;50.272;12.818;2023-05-23T08:44:06;95740;;;19.3;58.5
77469;BME280;68840;50.272;12.818;2023-05-23T08:46:05;95744;;;19.3;59.1
77469;BME280;68840;50.272;12.818;2023-05-23T08:48:07;95744;;;19.2;58.2
77469;BME280;68840;50.272;12.818;2023-05-23T08:50:07;95748;;;19.2;58.1
77469;BME280;68840;50.272;12.818;2023-05-23T08:52:11;95752;;;19.1;58.3
77469;BME280;68840;50.272;12.818;2023-05-23T08:54:08;95755;;;19.0;59.4
77469;BME280;68840;50.272;12.818;2023-05-23T08:56:06;95757;;;18.9;59.2
77469;BME280;68840;50.272;12.818;2023-05-23T08:58:06;95758;;;18.9;59.1
77469;BME280;68840;50.272;12.818;2023-05-23T09:00:13;95759;;;18.8;59.6
77469;BME280;68840;50.272;12.818;2023-05-23T09:02:10;95763;;;18.8;59.5
77469;BME280;68840;50.272;12.818;2023-05-23T09:04:06;95762;;;18.7;60.4
77469;BME280;68840;50.272;12.818;2023-05-23T09:06:06;95764;;;18.6;60.4
77469;BME280;68840;50.272;12.818;2023-05-23T09:08:05;95766;;;18.5;61.2
77469;BME280;68840;50.272;12.818;2023-05-23T09:10:08;95767;;;18.5;61.2
77469;BME280;68840;50.272;12.818;2023-05-23T09:16:08;95762;;;18.5;61.0
77469;BME280;68840;50.272;12.818;2023-05-23T09:18:05;95761;;;18.5;61.7
77469;BME280;68840;50.272;12.818;2023-05-23T09:20:11;95763;;;18.6;59.9
77469;BME280;68840;50.272;12.818;2023-05-23T09:22:05;95765;;;18.7;61.3
77469;BME280;68840;50.272;12.818;2023-05-23T09:24:06;95766;;;18.7;61.6
77469;BME280;68840;50.272;12.818;2023-05-23T09:26:07;95766;;;18.7;59.8
77469;BME280;68840;50.272;12.818;2023-05-23T09:28:05;95768;;;18.8;60.0
77469;BME280;68840;50.272;12.818;2023-05-23T09:32:14;95764;;;18.7;59.0
77469;BME280;68840;50.272;12.818;2023-05-23T09:34:06;95766;;;18.7;58.8
77469;BME280;68840;50.272;12.818;2023-05-23T09:36:16;95768;;;18.6;59.2
77469;BME280;68840;50.272;12.818;2023-05-23T09:40:09;95765;;;18.6;60.3
77469;BME280;68840;50.272;12.818;2023-05-23T09:42:06;95770;;;18.6;59.9
77469;BME280;68840;50.272;12.818;2023-05-23T09:44:07;95776;;;18.6;59.9
77469;BME280;68840;50.272;12.818;2023-05-23T09:46:08;95781;;;18.6;60.0
77469;BME280;68840;50.272;12.818;2023-05-23T09:48:10;95783;;;18.6;60.5
77469;BME280;68840;50.272;12.818;2023-05-23T09:50:07;95788;;;18.6;59.4
77469;BME280;68840;50.272;12.818;2023-05-23T09:52:06;95789;;;18.6;59.5
77469;BME280;68840;50.272;12.818;2023-05-23T09:54:05;95790;;;18.6;58.6
77469;BME280;68840;50.272;12.818;2023-05-23T09:56:06;95789;;;18.6;59.2
77469;BME280;68840;50.272;12.818;2023-05-23T09:58:05;95791;;;18.5;58.0
77469;BME280;68840;50.272;12.818;2023-05-23T10:00:10;95793;;;18.5;58.7
77469;BME280;68840;50.272;12.818;2023-05-23T10:02:06;95796;;;18.5;58.2
77469;BME280;68840;50.272;12.818;2023-05-23T10:04:06;95799;;;18.6;58.7
77469;BME280;68840;50.272;12.818;2023-05-23T10:06:14;95801;;;18.6;57.3
77469;BME280;68840;50.272;12.818;2023-05-23T10:08:08;95798;;;18.5;57.8
77469;BME280;68840;50.272;12.818;2023-05-23T10:10:08;95799;;;18.5;57.5
77469;BME280;68840;50.272;12.818;2023-05-23T10:12:45;95800;;;18.5;57.9
77469;BME280;68840;50.272;12.818;2023-05-23T10:14:06;95802;;;18.5;57.9
77469;BME280;68840;50.272;12.818;2023-05-23T10:16:11;95799;;;18.5;57.9
77469;BME280;68840;50.272;12.818;2023-05-23T10:18:09;95797;;;18.6;58.1
77469;BME280;68840;50.272;12.818;2023-05-23T10:20:10;95790;;;18.6;57.9
77469;BME280;68840;50.272;12.818;2023-05-23T10:22:08;95789;;;18.6;58.1
77469;BME280;68840;50.272;12.818;2023-05-23T10:24:06;95784;;;18.6;57.7
77469;BME280;68840;50.272;12.818;2023-05-23T10:26:06;95781;;;18.7;57.6
77469;BME280;68840;50.272;12.818;2023-05-23T10:28:06;95782;;;18.8;58.6
77469;BME280;68840;50.272;12.818;2023-05-23T10:30:06;95781;;;18.8;57.9
77469;BME280;68840;50.272;12.818;2023-05-23T10:32:06;95778;;;18.8;57.8
77469;BME280;68840;50.272;12.818;2023-05-23T10:34:13;95773;;;18.9;59.5
77469;BME280;68840;50.272;12.818;2023-05-23T10:36:09;95773;;;19.0;58.7
77469;BME280;68840;50.272;12.818;2023-05-23T10:38:15;95773;;;19.1;59.4
77469;BME280;68840;50.272;12.818;2023-05-23T10:40:14;95777;;;19.3;60.7
77469;BME280;68840;50.272;12.818;2023-05-23T10:42:11;95776;;;19.5;59.2
77469;BME280;68840;50.272;12.818;2023-05-23T10:44:10;95774;;;19.7;58.2
77469;BME280;68840;50.272;12.818;2023-05-23T10:46:07;95774;;;19.9;56.2
77469;BME280;68840;50.272;12.818;2023-05-23T10:48:19;95768;;;20.0;54.6
77469;BME280;68840;50.272;12.818;2023-05-23T10:50:06;95764;;;20.0;54.7
77469;BME280;68840;50.272;12.818;2023-05-23T10:52:06;95766;;;20.1;54.4
77469;BME280;68840;50.272;12.818;2023-05-23T10:54:10;95765;;;20.1;53.6
77469;BME280;68840;50.272;12.818;2023-05-23T10:56:06;95763;;;20.2;54.2
77469;BME280;68840;50.272;12.818;2023-05-23T10:58:08;95758;;;20.3;55.0
77469;BME280;68840;50.272;12.818;2023-05-23T11:00:12;95756;;;20.4;53.0
77469;BME280;68840;50.272;12.818;2023-05-23T11:02:11;95756;;;20.4;53.7
77469;BME280;68840;50.272;12.818;2023-05-23T11:04:06;95758;;;20.4;51.9
77469;BME280;68840;50.272;12.818;2023-05-23T11:06:05;95762;;;20.4;53.1
77469;BME280;68840;50.272;12.818;2023-05-23T11:08:06;95766;;;20.3;51.8
77469;BME280;68840;50.272;12.818;2023-05-23T11:10:10;95764;;;20.4;51.4
77469;BME280;68840;50.272;12.818;2023-05-23T11:12:06;95762;;;20.5;50.5
77469;BME280;68840;50.272;12.818;2023-05-23T11:14:05;95762;;;20.5;51.9
77469;BME280;68840;50.272;12.818;2023-05-23T11:16:22;95767;;;20.6;51.8
77469;BME280;68840;50.272;12.818;2023-05-23T11:18:05;95766;;;20.7;49.1
77469;BME280;68840;50.272;12.818;2023-05-23T11:20:08;95766;;;20.7;50.2
77469;BME280;68840;50.272;12.818;2023-05-23T11:22:07;95770;;;20.7;49.2
77469;BME280;68840;50.272;12.818;2023-05-23T11:24:05;95768;;;20.7;50.3
77469;BME280;68840;50.272;12.818;2023-05-23T11:26:31;95770;;;20.8;49.8
77469;BME280;68840;50.272;12.818;2023-05-23T11:28:05;95769;;;20.8;49.8
77469;BME280;68840;50.272;12.818;2023-05-23T11:30:08;95774;;;20.8;50.7
77469;BME280;68840;50.272;12.818;2023-05-23T11:32:10;95778;;;20.8;51.2
77469;BME280;68840;50.272;12.818;2023-05-23T11:34:06;95778;;;20.8;49.7
77469;BME280;68840;50.272;12.818;2023-05-23T11:36:06;95779;;;20.8;49.7
77469;BME280;68840;50.272;12.818;2023-05-23T11:38:05;95780;;;20.7;48.6
77469;BME280;68840;50.272;12.818;2023-05-23T11:40:31;95776;;;20.6;48.7
77469;BME280;68840;50.272;12.818;2023-05-23T11:42:05;95771;;;20.5;50.5
77469;BME280;68840;50.272;12.818;2023-05-23T11:44:13;95772;;;20.5;50.8